Time;durP1;ratioP1;P1;durP2;ratioP2;P2;SDS_P1;SDS_P2;PMS_P1;PMS_P2;Temp;Humidity;BMP_temperature;BMP_pressure;BME280_temperature;BME280_humidity;BME280_pressure;Samples;Min_cycle;Max_cycle;Signal;HPM_P1;HPM_P2
2023/06/23 00:00:15;;;;;;;11.13;10.07;;;;;;;15.86;100.00;101683.75;5007271;28;20033;-63
2023/06/23 00:02:40;;;;;;;12.65;9.80;;;;;;;15.83;100.00;101687.16;5007409;28;20029;-63
2023/06/23 00:05:07;;;;;;;9.95;9.05;;;;;;;15.80;100.00;101694.94;5007908;28;20284;-62
2023/06/23 00:07:33;;;;;;;10.88;9.60;;;;;;;15.79;100.00;101692.28;5007496;28;20038;-63
2023/06/23 00:10:00;;;;;;;10.57;9.52;;;;;;;15.78;100.00;101703.56;5007251;28;20022;-63
2023/06/23 00:12:25;;;;;;;11.05;9.80;;;;;;;15.74;100.00;101702.59;5006705;28;20489;-62
2023/06/23 00:14:50;;;;;;;10.05;9.15;;;;;;;15.72;100.00;101706.94;5007601;28;20026;-62
2023/06/23 00:17:15;;;;;;;12.80;9.13;;;;;;;15.65;100.00;101703.25;5007470;28;20351;-62
2023/06/23 00:19:41;;;;;;;12.90;10.43;;;;;;;15.64;100.00;101709.34;5007435;28;20592;-63
2023/06/23 00:22:06;;;;;;;11.00;9.88;;;;;;;15.63;100.00;101714.53;5006913;28;20250;-63
2023/06/23 00:24:32;;;;;;;10.95;9.85;;;;;;;15.58;100.00;101717.91;5007563;28;20038;-62
2023/06/23 00:26:58;;;;;;;11.05;9.52;;;;;;;15.55;100.00;101722.16;5007233;28;20060;-63
2023/06/23 00:29:23;;;;;;;15.10;10.43;;;;;;;15.51;100.00;101721.22;5007214;28;20026;-63
2023/06/23 00:31:49;;;;;;;10.68;9.57;;;;;;;15.48;100.00;101715.91;5007358;28;20497;-62
2023/06/23 00:34:15;;;;;;;11.35;10.00;;;;;;;15.45;100.00;101721.06;5006982;28;20251;-62
2023/06/23 00:36:40;;;;;;;11.30;9.80;;;;;;;15.42;100.00;101720.97;5007282;28;20029;-63
2023/06/23 00:39:08;;;;;;;14.40;10.35;;;;;;;15.39;100.00;101720.88;5007382;28;20157;-62
2023/06/23 00:41:34;;;;;;;14.77;11.20;;;;;;;15.36;100.00;101730.41;5008930;28;20026;-62
2023/06/23 00:43:59;;;;;;;14.35;10.30;;;;;;;15.34;100.00;101729.47;5011400;28;20029;-63
2023/06/23 00:46:26;;;;;;;11.88;10.85;;;;;;;15.32;100.00;101736.41;5011172;28;20030;-63
2023/06/23 00:48:52;;;;;;;13.13;11.10;;;;;;;15.31;100.00;101741.59;5011005;28;20457;-62
2023/06/23 00:51:17;;;;;;;13.73;11.43;;;;;;;15.30;100.00;101745.94;5010532;28;20014;-62
2023/06/23 00:53:46;;;;;;;12.82;11.60;;;;;;;15.28;100.00;101747.59;5011118;28;20026;-62
2023/06/23 00:56:13;;;;;;;16.02;11.82;;;;;;;15.24;100.00;101759.69;5010729;28;20097;-62
2023/06/23 00:58:38;;;;;;;14.20;11.88;;;;;;;15.22;100.00;101755.25;5011132;28;20049;-62
2023/06/23 01:01:05;;;;;;;12.90;11.70;;;;;;;15.21;100.00;101771.78;5010592;28;20022;-62
2023/06/23 01:03:31;;;;;;;13.13;11.93;;;;;;;15.18;100.00;101780.41;5010782;28;20398;-63
2023/06/23 01:06:02;;;;;;;14.15;12.85;;;;;;;15.13;100.00;101782.88;5010775;28;20014;-62
2023/06/23 01:08:33;;;;;;;;;;;;;;;15.12;100.00;101780.25;5010237;28;20033;-61
2023/06/23 01:11:09;;;;;;;14.80;12.88;;;;;;;15.12;100.00;101778.53;5011265;28;20376;-62
2023/06/23 01:13:48;;;;;;;16.60;13.32;;;;;;;15.12;100.00;101780.25;5010236;28;20030;-63
2023/06/23 01:16:18;;;;;;;14.75;13.25;;;;;;;15.11;100.00;101774.13;5010813;28;20489;-62
2023/06/23 01:19:09;;;;;;;14.65;13.18;;;;;;;15.11;100.00;101771.50;5010061;28;20032;-63
2023/06/23 01:21:59;;;;;;;16.10;14.43;;;;;;;15.12;100.00;101775.03;5009909;28;20033;-63
2023/06/23 01:24:30;;;;;;;17.08;15.43;;;;;;;15.09;100.00;101778.41;5010374;28;20429;-62
2023/06/23 01:27:28;;;;;;;17.27;15.43;;;;;;;15.07;100.00;101785.34;5009908;28;20030;-62
2023/06/23 01:29:58;;;;;;;16.52;14.77;;;;;;;15.07;100.00;101787.97;5010081;28;20117;-62
2023/06/23 01:32:27;;;;;;;18.17;16.38;;;;;;;15.06;100.00;101794.00;5010457;28;20283;-62
2023/06/23 01:34:58;;;;;;;18.00;16.13;;;;;;;15.08;100.00;101789.72;5009877;28;20103;-62
2023/06/23 01:37:28;;;;;;;17.23;15.63;;;;;;;15.10;100.00;101788.03;5009727;28;20437;-63
2023/06/23 01:39:57;;;;;;;19.88;16.20;;;;;;;15.10;100.00;101788.03;5010016;28;20018;-63
2023/06/23 01:42:28;;;;;;;19.30;17.38;;;;;;;15.11;100.00;101786.31;5009772;28;20023;-63
2023/06/23 01:44:57;;;;;;;19.40;17.00;;;;;;;15.10;100.00;101792.34;5009720;28;20026;-63
2023/06/23 01:47:28;;;;;;;20.58;18.45;;;;;;;15.07;100.00;101798.41;5010181;28;20590;-62
2023/06/23 01:49:58;;;;;;;18.90;16.93;;;;;;;15.08;100.00;101807.97;5009173;28;20026;-63
2023/06/23 01:52:25;;;;;;;20.33;17.70;;;;;;;15.05;100.00;101809.63;5008460;28;20091;-62
2023/06/23 01:54:52;;;;;;;20.15;18.33;;;;;;;15.03;100.00;101806.97;4997522;28;20045;-63
2023/06/23 01:57:19;;;;;;;21.27;19.00;;;;;;;15.04;100.00;101819.16;5009169;28;20383;-63
2023/06/23 01:59:47;;;;;;;21.70;19.40;;;;;;;15.02;100.00;101809.53;5009669;28;20108;-63
2023/06/23 02:02:15;;;;;;;21.48;19.23;;;;;;;15.04;100.00;101805.25;5009123;28;20021;-62
2023/06/23 02:04:43;;;;;;;22.40;20.27;;;;;;;15.05;100.00;101804.41;5008960;28;20018;-62
2023/06/23 02:07:11;;;;;;;24.05;21.63;;;;;;;15.06;100.00;101811.38;5009591;28;20064;-62
2023/06/23 02:09:37;;;;;;;22.33;20.35;;;;;;;15.06;100.00;101821.81;5009964;28;20497;-62
2023/06/23 02:12:06;;;;;;;22.35;20.25;;;;;;;15.06;100.00;101822.72;5009919;28;20022;-62
2023/06/23 02:14:34;;;;;;;23.30;20.60;;;;;;;15.07;100.00;101836.66;5009706;28;20017;-62
2023/06/23 02:17:01;;;;;;;23.20;20.00;;;;;;;15.05;100.00;101828.78;5008533;28;20120;-62
2023/06/23 02:19:27;;;;;;;22.48;20.38;;;;;;;15.03;100.00;101827.84;5009488;28;20057;-62
2023/06/23 02:21:55;;;;;;;23.77;21.05;;;;;;;15.02;100.00;101833.03;5009451;28;20113;-63
2023/06/23 02:24:21;;;;;;;22.67;20.30;;;;;;;14.98;100.00;101839.88;5009270;28;20108;-63
2023/06/23 02:26:47;;;;;;;22.35;20.25;;;;;;;14.95;100.00;101853.72;5008803;28;20034;-62
2023/06/23 02:29:14;;;;;;;22.88;20.58;;;;;;;14.93;100.00;101852.78;5009140;28;20034;-62
2023/06/23 02:31:40;;;;;;;23.20;21.00;;;;;;;14.89;100.00;101870.06;5008695;28;20025;-62
2023/06/23 02:34:05;;;;;;;23.23;21.02;;;;;;;14.87;100.00;101869.16;5008914;28;20119;-63
2023/06/23 02:36:37;;;;;;;23.23;20.92;;;;;;;14.86;100.00;101867.38;5009160;28;20048;-62
2023/06/23 02:39:05;;;;;;;26.15;21.13;;;;;;;14.87;100.00;101876.97;5009261;28;20072;-62
2023/06/23 02:41:33;;;;;;;23.33;20.92;;;;;;;14.87;100.00;101873.47;5008056;28;20154;-62
2023/06/23 02:44:04;;;;;;;23.50;21.17;;;;;;;14.85;100.00;101875.16;5008502;28;20061;-63
2023/06/23 02:46:33;;;;;;;24.75;22.45;;;;;;;14.81;100.00;101871.56;5008769;28;20029;-62
2023/06/23 02:49:06;;;;;;;25.75;23.17;;;;;;;14.79;100.00;101881.03;5008589;28;20034;-62
2023/06/23 02:51:35;;;;;;;25.35;22.98;;;;;;;14.77;100.00;101887.91;5008284;28;20029;-62
2023/06/23 02:54:06;;;;;;;26.85;24.15;;;;;;;14.76;100.00;101887.06;5008105;28;20041;-62
2023/06/23 02:56:37;;;;;;;26.15;23.58;;;;;;;14.75;100.00;101895.69;4997427;28;20028;-62
2023/06/23 02:59:07;;;;;;;26.57;24.07;;;;;;;14.75;100.00;101900.03;5007622;28;20140;-63
2023/06/23 03:01:40;;;;;;;26.55;24.10;;;;;;;14.73;100.00;101888.69;5008500;28;20064;-62
2023/06/23 03:04:05;;;;;;;26.23;23.73;;;;;;;14.70;100.00;101891.16;5008576;28;20368;-62
2023/06/23 03:06:34;;;;;;;28.23;24.52;;;;;;;14.69;100.00;101894.63;5008661;28;20041;-62
2023/06/23 03:09:00;;;;;;;29.35;26.65;;;;;;;14.68;100.00;101904.16;5008705;28;20018;-63
2023/06/23 03:11:25;;;;;;;28.38;25.65;;;;;;;14.67;100.00;101891.97;5007735;28;20585;-62
2023/06/23 03:13:50;;;;;;;28.88;26.08;;;;;;;14.68;100.00;101898.09;5007325;28;20029;-62
2023/06/23 03:16:25;;;;;;;29.90;26.23;;;;;;;14.68;100.00;101898.09;5007180;28;20028;-61
2023/06/23 03:19:06;;;;;;;29.52;26.42;;;;;;;14.65;100.00;101894.53;5006156;28;20108;-62
2023/06/23 03:21:36;;;;;;;30.63;27.40;;;;;;;14.59;100.00;101898.69;5007342;28;20413;-62
2023/06/23 03:24:06;;;;;;;31.27;28.15;;;;;;;14.57;100.00;101911.63;5005939;28;20137;-62
2023/06/23 03:26:36;;;;;;;32.73;29.53;;;;;;;14.59;100.00;101907.34;5006196;28;20084;-62
2023/06/23 03:29:03;;;;;;;32.42;29.38;;;;;;;14.58;100.00;101903.00;5005986;28;20022;-62
2023/06/23 03:31:29;;;;;;;30.85;27.63;;;;;;;14.59;100.00;101909.97;5005599;28;20453;-62
2023/06/23 03:33:57;;;;;;;32.72;29.63;;;;;;;14.59;100.00;101909.97;5007981;28;20030;-62
2023/06/23 03:36:25;;;;;;;29.58;26.63;;;;;;;14.58;100.00;101908.22;5007779;28;20021;-62
2023/06/23 03:39:15;;;;;;;32.63;29.25;;;;;;;14.57;100.00;101910.78;5008475;28;20104;-62
2023/06/23 03:41:42;;;;;;;32.33;29.02;;;;;;;14.56;100.00;101915.09;5006898;28;20032;-62
2023/06/23 03:44:32;;;;;;;33.65;30.15;;;;;;;14.53;100.00;101918.47;5008144;28;20098;-62
2023/06/23 03:47:03;;;;;;;34.63;31.05;;;;;;;14.54;100.00;101916.75;4997592;28;20388;-62
2023/06/23 03:49:34;;;;;;;35.38;31.70;;;;;;;14.54;100.00;101916.75;5006910;28;20501;-62
2023/06/23 03:52:01;;;;;;;34.20;30.73;;;;;;;14.51;100.00;101916.66;5007624;28;20564;-62
2023/06/23 03:54:29;;;;;;;36.03;32.13;;;;;;;14.51;100.00;101912.34;5007382;28;20048;-62
2023/06/23 03:56:55;;;;;;;34.40;31.00;;;;;;;14.51;100.00;101917.56;5008156;28;20029;-62
2023/06/23 03:59:25;;;;;;;35.22;31.60;;;;;;;14.51;100.00;101922.78;5006803;28;20045;-62
2023/06/23 04:01:51;;;;;;;35.40;31.75;;;;;;;14.50;100.00;101931.41;5007844;28;20382;-62
2023/06/23 04:04:21;;;;;;;36.33;32.00;;;;;;;14.51;100.00;101934.94;5007507;28;20058;-62
2023/06/23 04:06:48;;;;;;;36.07;32.33;;;;;;;14.51;100.00;101940.13;5007770;28;20033;-62
2023/06/23 04:09:16;;;;;;;34.00;30.67;;;;;;;14.52;100.00;101941.91;5007533;28;20072;-62
2023/06/23 04:11:43;;;;;;;34.60;30.90;;;;;;;14.52;100.00;101949.72;5007425;28;20378;-62
2023/06/23 04:14:12;;;;;;;35.63;31.58;;;;;;;14.53;100.00;101949.78;5007339;28;20018;-62
2023/06/23 04:16:40;;;;;;;35.85;32.22;;;;;;;14.55;100.00;101946.34;5009753;28;20079;-62
2023/06/23 04:19:07;;;;;;;38.35;33.58;;;;;;;14.56;100.00;101946.41;5011850;28;20030;-62
2023/06/23 04:21:34;;;;;;;35.35;31.85;;;;;;;14.59;100.00;101948.22;5011495;28;20049;-62
2023/06/23 04:24:02;;;;;;;37.15;33.28;;;;;;;14.63;100.00;101947.47;5010686;28;20114;-61
2023/06/23 04:26:28;;;;;;;36.55;33.03;;;;;;;14.69;100.00;101946.78;5011768;28;20052;-62
2023/06/23 04:28:55;;;;;;;38.50;32.17;;;;;;;14.74;100.00;101955.66;5011050;28;20573;-62
2023/06/23 04:31:23;;;;;;;39.70;35.47;;;;;;;14.79;100.00;101963.66;5011123;28;20025;-62
2023/06/23 04:33:49;;;;;;;44.80;34.13;;;;;;;14.81;100.00;101957.66;4999439;28;20026;-62
2023/06/23 04:36:20;;;;;;;37.45;33.33;;;;;;;14.86;100.00;101965.63;5011422;28;20548;-62
2023/06/23 04:39:08;;;;;;;38.95;34.40;;;;;;;14.91;100.00;101963.19;5011884;28;20033;-62
2023/06/23 04:41:38;;;;;;;38.60;34.45;;;;;;;14.95;100.00;101959.84;5011191;28;20025;-62
2023/06/23 04:44:08;;;;;;;39.45;35.15;;;;;;;15.02;100.00;101967.00;5011782;28;20026;-62
2023/06/23 04:46:38;;;;;;;38.38;34.22;;;;;;;15.08;100.00;101977.66;5011953;28;20355;-61
2023/06/23 04:49:10;;;;;;;40.30;34.67;;;;;;;15.12;100.00;101981.25;5011544;28;20034;-62
2023/06/23 04:51:40;;;;;;;40.65;34.20;;;;;;;15.17;100.00;101982.25;5011753;28;20983;-62
2023/06/23 04:54:20;;;;;;;36.63;32.65;;;;;;;15.23;100.00;101986.78;5010704;28;20112;-62
2023/06/23 04:56:49;;;;;;;38.20;33.10;;;;;;;15.27;100.00;101988.69;5011924;28;20421;-62
2023/06/23 04:59:19;;;;;;;41.08;36.53;;;;;;;15.33;100.00;101980.13;5010956;28;20041;-62
2023/06/23 05:01:46;;;;;;;37.65;33.75;;;;;;;15.38;100.00;101988.97;5011712;28;20026;-62
2023/06/23 05:04:14;;;;;;;39.60;35.42;;;;;;;15.44;100.00;101990.88;5010887;28;20010;-62
2023/06/23 05:06:42;;;;;;;40.60;34.00;;;;;;;15.49;100.00;101995.41;5011391;28;20034;-63
2023/06/23 05:09:08;;;;;;;37.70;33.75;;;;;;;15.55;100.00;102001.66;5010614;28;20428;-63
2023/06/23 05:11:35;;;;;;;40.92;34.50;;;;;;;15.60;100.00;102011.41;5017822;28;20401;-61
2023/06/23 05:14:02;;;;;;;38.60;33.63;;;;;;;15.66;100.00;102005.50;5000045;28;20032;-62
2023/06/23 05:16:28;;;;;;;37.95;33.95;;;;;;;15.73;100.00;102010.06;5009933;28;20018;-63
2023/06/23 05:18:55;;;;;;;35.72;32.15;;;;;;;15.79;100.00;102009.34;5015393;28;20363;-62
2023/06/23 05:21:25;;;;;;;40.38;33.42;;;;;;;15.88;100.00;102015.69;5026912;28;20030;-62
2023/06/23 05:23:53;;;;;;;38.78;34.63;;;;;;;15.95;100.00;102009.78;5012000;28;20022;-62
2023/06/23 05:26:19;;;;;;;40.40;34.67;;;;;;;16.01;100.00;102009.97;5010158;28;20441;-63
2023/06/23 05:28:46;;;;;;;38.92;32.72;;;;;;;16.07;100.00;102010.16;5009407;28;20037;-62
2023/06/23 05:31:13;;;;;;;39.38;33.60;;;;;;;16.17;100.00;102020.88;5010284;28;20054;-62
2023/06/23 05:33:40;;;;;;;38.28;34.13;;;;;;;16.25;100.00;102019.34;5009873;28;20044;-63
2023/06/23 05:36:11;;;;;;;40.45;33.85;;;;;;;16.31;100.00;102021.25;5009731;28;20022;-63
2023/06/23 05:38:41;;;;;;;38.83;34.78;;;;;;;16.39;100.00;102026.66;5010576;28;20390;-63
2023/06/23 05:41:06;;;;;;;39.17;33.70;;;;;;;16.46;100.00;102018.13;5009258;28;20367;-63
2023/06/23 05:43:32;;;;;;;39.80;35.50;;;;;;;16.53;100.00;102025.31;5009327;28;20041;-63
2023/06/23 05:45:58;;;;;;;42.25;34.33;;;;;;;16.59;100.00;102029.81;5009188;28;20385;-63
2023/06/23 05:48:32;;;;;;;37.15;33.25;;;;;;;16.62;100.00;102027.28;5022531;28;20071;-62
2023/06/23 05:51:00;;;;;;;36.08;32.33;;;;;;;16.67;100.00;102033.53;5010446;28;20121;-62
2023/06/23 05:53:28;;;;;;;35.83;31.98;;;;;;;16.74;100.00;102033.69;5010530;28;20034;-63
2023/06/23 05:56:21;;;;;;;36.05;32.05;;;;;;;16.78;100.00;102035.53;5009890;28;20085;-63
2023/06/23 05:58:49;;;;;;;37.53;33.03;;;;;;;16.85;100.00;102037.47;5010025;28;21239;-63
2023/06/23 06:01:19;;;;;;;35.92;32.08;;;;;;;16.93;100.00;102035.00;5010275;28;20033;-63
2023/06/23 06:03:48;;;;;;;35.83;31.67;;;;;;;17.00;100.00;102042.16;5009927;28;20109;-63
2023/06/23 06:06:15;;;;;;;38.58;34.45;;;;;;;17.08;100.00;102039.75;5009352;28;20026;-63
2023/06/23 06:08:43;;;;;;;35.15;31.38;;;;;;;17.14;100.00;102045.16;5009849;28;20026;-63
2023/06/23 06:11:10;;;;;;;38.05;33.47;;;;;;;17.24;100.00;102055.84;5009882;28;20050;-62
2023/06/23 06:13:38;;;;;;;36.30;32.58;;;;;;;17.34;100.00;102051.72;5010038;28;20025;-63
2023/06/23 06:16:06;;;;;;;37.60;33.38;;;;;;;17.41;100.00;102061.50;5009988;28;20018;-63
2023/06/23 06:18:34;;;;;;;34.90;31.35;;;;;;;17.49;100.00;102069.50;5008888;28;20034;-63
2023/06/23 06:21:01;;;;;;;34.78;31.20;;;;;;;17.61;100.00;102066.31;5009941;28;20054;-63
2023/06/23 06:23:30;;;;;;;36.47;32.65;;;;;;;17.73;100.00;102065.66;5009361;28;20034;-63
2023/06/23 06:25:56;;;;;;;35.05;31.38;;;;;;;17.83;100.00;102074.59;5008179;28;20033;-63
2023/06/23 06:28:25;;;;;;;37.95;33.92;;;;;;;17.90;100.00;102073.88;5008249;28;20062;-63
2023/06/23 06:30:53;;;;;;;37.33;33.22;;;;;;;18.00;100.00;102068.00;5009291;28;20631;-63
2023/06/23 06:33:20;;;;;;;32.22;28.92;;;;;;;18.10;100.00;102070.78;5008801;28;20026;-63
2023/06/23 06:35:48;;;;;;;36.30;32.63;;;;;;;18.19;100.00;102071.00;5009014;28;20033;-63
2023/06/23 06:38:15;;;;;;;34.28;30.83;;;;;;;18.32;100.00;102074.78;5007849;28;20137;-64
2023/06/23 06:40:43;;;;;;;33.33;29.92;;;;;;;18.39;100.00;102078.38;5008931;28;20030;-63
2023/06/23 06:43:08;;;;;;;30.25;27.25;;;;;;;18.50;100.00;102085.56;5008577;28;20068;-63
2023/06/23 06:45:33;;;;;;;31.90;28.65;;;;;;;18.59;100.00;102084.00;5008691;28;20033;-64
2023/06/23 06:48:01;;;;;;;33.08;29.63;;;;;;;18.69;100.00;102095.56;5008395;28;20029;-64
2023/06/23 06:50:27;;;;;;;33.45;30.00;;;;;;;18.72;100.00;102098.25;5008745;28;20030;-63
2023/06/23 06:52:54;;;;;;;34.17;30.75;;;;;;;18.72;100.00;102093.00;5008845;28;20029;-62
2023/06/23 06:55:21;;;;;;;33.78;30.20;;;;;;;18.75;100.00;102096.50;5008838;28;20308;-62
2023/06/23 06:57:47;;;;;;;33.25;29.90;;;;;;;18.84;100.00;102101.94;5008680;28;20072;-62
2023/06/23 07:00:16;;;;;;;33.10;29.83;;;;;;;18.88;100.00;102109.00;5008378;28;20084;-63
2023/06/23 07:02:43;;;;;;;32.42;29.27;;;;;;;18.93;100.00;102104.72;5008627;28;20033;-63
2023/06/23 07:05:08;;;;;;;31.33;28.05;;;;;;;18.93;100.00;102115.22;5008734;28;20014;-62
2023/06/23 07:07:34;;;;;;;30.13;27.08;;;;;;;18.99;100.00;102116.19;5007512;28;20481;-63
2023/06/23 07:09:59;;;;;;;28.75;25.90;;;;;;;19.11;100.00;102120.75;5007332;28;20021;-63
2023/06/23 07:12:24;;;;;;;28.15;25.50;;;;;;;19.25;100.00;102121.03;5008117;28;20033;-63
2023/06/23 07:14:50;;;;;;;26.15;23.50;;;;;;;19.35;100.00;102120.31;5008138;28;20014;-62
2023/06/23 07:17:15;;;;;;;26.05;23.35;;;;;;;19.46;100.00;102127.47;5008149;28;20095;-63
2023/06/23 07:19:41;;;;;;;25.77;23.38;;;;;;;19.56;100.00;102134.63;5007803;28;20095;-63
2023/06/23 07:22:07;;;;;;;24.52;22.05;;;;;;;19.72;100.00;102129.59;5006078;28;20033;-63
2023/06/23 07:24:32;;;;;;;23.10;20.90;;;;;;;19.87;100.00;102127.19;5005850;28;20030;-63
2023/06/23 07:26:57;;;;;;;23.83;21.55;;;;;;;20.04;100.00;102134.41;5006173;28;20180;-63
2023/06/23 07:29:23;;;;;;;24.60;22.23;;;;;;;20.20;100.00;102137.28;5006221;28;20033;-63
2023/06/23 07:31:48;;;;;;;22.60;20.50;;;;;;;20.33;100.00;102141.81;5006377;28;20021;-63
2023/06/23 07:34:13;;;;;;;21.05;19.05;;;;;;;20.47;100.00;102138.47;5006088;28;20079;-63
2023/06/23 07:36:39;;;;;;;20.10;18.20;;;;;;;20.59;100.00;102141.22;5007335;28;20061;-63
2023/06/23 07:39:04;;;;;;;19.40;17.60;;;;;;;20.71;100.00;102139.56;5007672;28;20049;-63
2023/06/23 07:41:30;;;;;;;18.65;16.95;;;;;;;20.84;100.00;102141.47;5007705;28;20029;-63
2023/06/23 07:43:55;;;;;;;21.88;19.00;;;;;;;20.97;100.00;102141.63;5007587;28;20034;-63
2023/06/23 07:46:20;;;;;;;22.13;20.02;;;;;;;21.07;100.00;102145.22;5007453;28;20017;-63
2023/06/23 07:48:46;;;;;;;21.40;19.52;;;;;;;21.17;100.00;102149.72;5007878;28;20386;-63
2023/06/23 07:51:11;;;;;;;20.13;18.27;;;;;;;21.27;100.00;102150.66;5006923;28;20029;-64
2023/06/23 07:53:36;;;;;;;23.17;20.83;;;;;;;21.29;100.00;102146.28;5007092;28;20030;-63
2023/06/23 07:56:02;;;;;;;19.30;17.45;;;;;;;21.39;100.00;102146.34;5007562;28;20014;-63
2023/06/23 07:58:27;;;;;;;20.02;18.33;;;;;;;21.49;100.00;102150.81;5008682;28;20053;-63
2023/06/23 08:00:53;;;;;;;19.88;17.98;;;;;;;21.60;100.00;102146.47;5008912;28;20064;-63
2023/06/23 08:03:18;;;;;;;20.92;18.83;;;;;;;21.70;100.00;102149.19;5007544;28;20557;-63
2023/06/23 08:05:44;;;;;;;18.50;16.52;;;;;;;21.81;100.00;102146.63;5007307;28;20381;-63
2023/06/23 08:08:09;;;;;;;16.73;15.07;;;;;;;21.91;100.00;102156.34;5007088;28;20359;-63
2023/06/23 08:10:35;;;;;;;17.50;15.90;;;;;;;22.00;100.00;102152.88;5007501;28;20087;-63
2023/06/23 08:13:00;;;;;;;18.27;16.50;;;;;;;22.04;100.00;102152.03;5006927;28;20134;-63
2023/06/23 08:15:26;;;;;;;17.58;15.93;;;;;;;22.11;100.00;102154.72;5006076;28;20109;-63
2023/06/23 08:17:51;;;;;;;18.38;16.75;;;;;;;22.23;100.00;102153.88;5006256;28;20466;-63
2023/06/23 08:20:17;;;;;;;16.67;14.95;;;;;;;22.35;100.00;102158.31;5005773;28;20493;-64
2023/06/23 08:22:42;;;;;;;19.45;17.65;;;;;;;22.44;100.00;102150.41;5007825;28;20465;-63
2023/06/23 08:25:08;;;;;;;18.42;16.63;;;;;;;22.53;100.00;102153.09;5007340;28;20113;-63
2023/06/23 08:27:33;;;;;;;17.98;16.20;;;;;;;22.64;100.00;102154.91;5007470;28;20033;-63
2023/06/23 08:29:59;;;;;;;13.93;12.73;;;;;;;22.79;100.00;102156.69;5006612;28;20081;-63
2023/06/23 08:32:24;;;;;;;14.15;12.85;;;;;;;22.93;100.00;102158.47;5006340;28;20030;-63
2023/06/23 08:34:50;;;;;;;13.57;12.38;;;;;;;23.00;100.00;102161.13;5005273;28;20145;-63
2023/06/23 08:37:15;;;;;;;15.23;13.70;;;;;;;23.14;99.43;102160.22;5004666;28;20045;-63
2023/06/23 08:39:41;;;;;;;16.02;13.77;;;;;;;23.29;100.00;102169.03;5004766;28;20057;-63
2023/06/23 08:42:07;;;;;;;14.73;13.32;;;;;;;23.39;97.80;102171.69;5004932;28;20034;-63
2023/06/23 08:44:36;;;;;;;16.67;15.10;;;;;;;23.48;98.78;102165.53;5005313;28;20084;-63
2023/06/23 08:47:04;;;;;;;14.82;13.43;;;;;;;23.62;100.00;102172.53;5006551;28;20030;-63
2023/06/23 08:49:32;;;;;;;14.80;13.30;;;;;;;23.75;98.79;102174.28;5006691;28;20382;-63
2023/06/23 08:51:57;;;;;;;14.57;13.07;;;;;;;23.81;96.61;102175.16;5007469;28;20030;-63
2023/06/23 08:54:23;;;;;;;13.32;12.18;;;;;;;23.93;98.26;102183.06;5007687;28;20025;-63
2023/06/23 08:56:49;;;;;;;11.95;10.82;;;;;;;24.06;92.94;102191.84;5008422;28;20029;-63
2023/06/23 08:59:15;;;;;;;13.13;11.93;;;;;;;24.18;93.46;102196.25;5007364;28;20045;-64
2023/06/23 09:01:40;;;;;;;14.18;12.95;;;;;;;24.26;93.39;102196.22;5008348;28;20434;-63
2023/06/23 09:04:05;;;;;;;12.63;11.52;;;;;;;24.27;89.03;102197.13;5011195;28;20049;-64
2023/06/23 09:06:31;;;;;;;11.88;10.77;;;;;;;24.32;90.12;102190.88;5011404;28;20503;-63
2023/06/23 09:08:58;;;;;;;10.70;9.68;;;;;;;24.44;91.78;102204.97;5011144;28;20029;-63
2023/06/23 09:11:24;;;;;;;8.50;6.93;;;;;;;24.55;86.31;102203.16;5011228;28;20029;-63
2023/06/23 09:13:51;;;;;;;7.95;7.25;;;;;;;24.62;85.81;102197.81;5010391;28;20034;-64
2023/06/23 09:16:18;;;;;;;9.15;8.25;;;;;;;24.63;86.16;102205.72;5011279;28;20101;-64
2023/06/23 09:18:46;;;;;;;10.65;9.70;;;;;;;24.66;86.99;102199.56;5010832;28;20025;-64
2023/06/23 09:21:12;;;;;;;10.13;9.23;;;;;;;24.70;86.98;102207.47;5011103;28;20025;-64
2023/06/23 09:23:38;;;;;;;12.00;10.90;;;;;;;24.82;85.77;102202.97;5010260;28;20026;-63
2023/06/23 09:26:04;;;;;;;9.70;8.82;;;;;;;24.90;87.71;102209.09;5010629;28;20026;-64
2023/06/23 09:28:31;;;;;;;8.88;8.07;;;;;;;24.98;87.17;102210.84;5010686;28;20049;-64
2023/06/23 09:30:58;;;;;;;10.35;9.43;;;;;;;25.01;86.03;102210.81;5010595;28;20030;-63
2023/06/23 09:33:25;;;;;;;10.30;9.40;;;;;;;25.06;85.85;102212.56;5010356;28;20109;-64
2023/06/23 09:35:55;;;;;;;8.63;7.78;;;;;;;25.22;85.71;102224.81;5010989;28;20037;-64
2023/06/23 09:38:24;;;;;;;8.43;7.15;;;;;;;25.34;82.07;102224.72;5010758;28;20032;-64
2023/06/23 09:41:13;;;;;;;9.05;7.68;;;;;;;25.49;81.74;102222.84;5010719;28;20048;-64
2023/06/23 09:43:40;;;;;;;9.30;8.40;;;;;;;25.61;84.30;102230.69;4999223;28;20026;-64
2023/06/23 09:46:07;;;;;;;9.60;8.70;;;;;;;25.77;84.79;102233.19;5010373;28;20088;-63
2023/06/23 09:48:32;;;;;;;7.85;7.10;;;;;;;25.81;78.30;102229.63;5011204;28;20026;-63
2023/06/23 09:51:05;;;;;;;6.80;6.20;;;;;;;25.92;79.53;102225.97;5010739;28;20026;-64
2023/06/23 09:53:35;;;;;;;9.85;7.15;;;;;;;25.92;77.87;102231.28;5010779;28;20080;-64
2023/06/23 09:56:03;;;;;;;7.75;7.03;;;;;;;25.81;72.28;102234.03;5010346;28;20021;-64
2023/06/23 09:58:41;;;;;;;7.47;6.88;;;;;;;25.73;74.85;102228.81;5010028;28;20060;-64
2023/06/23 10:01:09;;;;;;;7.15;6.15;;;;;;;25.82;75.98;102235.78;5010266;28;20030;-64
2023/06/23 10:03:52;;;;;;;7.00;6.30;;;;;;;25.89;75.15;102221.56;5010614;28;20026;-63
2023/06/23 10:06:25;;;;;;;7.28;6.65;;;;;;;26.01;77.08;102215.25;4999497;28;20117;-64
2023/06/23 10:09:02;;;;;;;8.30;7.53;;;;;;;26.10;77.75;102216.91;5009815;28;20041;-63
2023/06/23 10:11:35;;;;;;;7.20;6.50;;;;;;;26.08;76.34;102216.94;5010374;28;20026;-64
2023/06/23 10:14:05;;;;;;;10.05;8.43;;;;;;;25.81;71.87;102219.00;5009472;28;20430;-64
2023/06/23 10:16:31;;;;;;;8.95;7.20;;;;;;;25.68;73.17;102223.56;5010392;28;20109;-64
2023/06/23 10:18:56;;;;;;;6.95;6.25;;;;;;;25.66;73.42;102220.03;5010017;28;20125;-64
2023/06/23 10:21:23;;;;;;;7.57;6.82;;;;;;;25.81;75.76;102219.00;5010282;28;20025;-64
2023/06/23 10:23:50;;;;;;;6.25;5.65;;;;;;;25.89;72.44;102217.13;5009616;28;20030;-64
2023/06/23 10:26:17;;;;;;;7.55;6.78;;;;;;;25.96;77.57;102217.09;5010082;28;20021;-64
2023/06/23 10:28:46;;;;;;;7.20;6.50;;;;;;;26.07;72.81;102214.28;5009500;28;20029;-64
2023/06/23 10:31:12;;;;;;;5.70;5.20;;;;;;;26.19;76.44;102221.25;5010016;28;20032;-64
2023/06/23 10:33:40;;;;;;;7.13;6.35;;;;;;;26.33;75.74;102221.06;5010051;28;20396;-64
2023/06/23 10:36:07;;;;;;;6.93;6.30;;;;;;;26.30;70.64;102227.28;5009455;28;20073;-63
2023/06/23 10:38:33;;;;;;;6.43;5.82;;;;;;;26.40;73.78;102224.53;5009788;28;20022;-64
2023/06/23 10:41:00;;;;;;;5.68;5.18;;;;;;;26.56;74.31;102222.56;5009998;28;20565;-64
2023/06/23 10:43:31;;;;;;;5.35;4.85;;;;;;;26.69;72.20;102225.94;5009094;28;20030;-64
2023/06/23 10:45:57;;;;;;;9.77;6.03;;;;;;;26.71;68.84;102226.78;5009617;28;20022;-64
2023/06/23 10:48:24;;;;;;;6.40;5.85;;;;;;;26.67;70.25;102233.91;4996288;28;20148;-64
2023/06/23 10:50:51;;;;;;;6.35;5.82;;;;;;;26.72;68.62;102231.19;5009235;28;20026;-64
2023/06/23 10:53:18;;;;;;;6.38;5.32;;;;;;;26.71;71.65;102233.00;5009194;28;20128;-64
2023/06/23 10:55:48;;;;;;;6.88;6.18;;;;;;;26.77;69.63;102232.00;5008998;28;20552;-64
2023/06/23 10:58:18;;;;;;;6.28;5.68;;;;;;;26.73;66.49;102225.00;5009310;28;20042;-64
2023/06/23 11:00:45;;;;;;;5.55;5.05;;;;;;;26.76;67.31;102232.03;5008655;28;20030;-64
2023/06/23 11:03:33;;;;;;;5.93;5.38;;;;;;;26.69;65.67;102228.59;5008884;28;20021;-64
2023/06/23 11:06:03;;;;;;;5.22;4.60;;;;;;;26.70;71.54;102233.88;5009450;28;20032;-64
2023/06/23 11:08:31;;;;;;;5.00;4.57;;;;;;;26.81;70.15;102235.50;5009636;28;20117;-64
2023/06/23 11:11:08;;;;;;;6.45;5.47;;;;;;;26.82;68.06;102240.78;5009747;28;20040;-64